This is the latest recevied weather packets stored in our database for station/object WX1NWA. If no packets are shown the sender has not sent any weather packets the latest 10 day(s).
| Time | Temp. | Humidity | Pressure | Rain* | Wind** | Luminosity | Snow |
|---|---|---|---|---|---|---|---|
| 1777483606 | 17.22° C | 74% | 1020.1 hPa | 0 mm | - | 371 W/m² | - |
| 1777483306 | 16.67° C | 74% | 1020.1 hPa | 0 mm | - | 244 W/m² | - |
| 1777483002 | 16.11° C | 75% | 1020.4 hPa | 0 mm | - | 383 W/m² | - |
| 1777482699 | 15.56° C | 78% | 1020.4 hPa | 0 mm | - | 351 W/m² | - |
| 1777482395 | 16.11° C | 76% | 1020.3 hPa | 0 mm | - | 257 W/m² | - |
| 1777482093 | 15.56° C | 75% | 1020.4 hPa | 0 mm | - | 804 W/m² | - |
| 1777481791 | 16.11° C | 76% | 1020.4 hPa | 0 mm | - | 601 W/m² | - |
| 1777481487 | 16.11° C | 77% | 1020.4 hPa | 0 mm | - | 560 W/m² | - |
| 1777481184 | 16.11° C | 77% | 1020.7 hPa | 0 mm | - | 827 W/m² | - |
| 1777480881 | 15.56° C | 77% | 1020.6 hPa | 0 mm | - | 798 W/m² | - |
| 1777480577 | 15.56° C | 77% | 1020.4 hPa | 0 mm | - | 825 W/m² | - |
| 1777480274 | 15° C | 80% | 1020.3 hPa | 0 mm | - | 861 W/m² | - |
| 1777479970 | 15° C | 79% | 1020.7 hPa | 0 mm | - | 854 W/m² | - |
| 1777479667 | 14.44° C | 81% | 1020.6 hPa | 0 mm | - | 823 W/m² | - |
| 1777479365 | 14.44° C | 80% | 1020.4 hPa | 0 mm | - | 814 W/m² | - |
| 1777479061 | 15° C | 78% | 1020.6 hPa | 0 mm | - | 781 W/m² | - |
| 1777478758 | 15° C | 80% | 1020.7 hPa | 0 mm | - | 786 W/m² | - |
| 1777478454 | 14.44° C | 82% | 1020.2 hPa | 0 mm | - | 292 W/m² | - |
| 1777478151 | 13.33° C | 85% | 1020.1 hPa | 0 mm | - | 835 W/m² | - |
| 1777477848 | 13.89° C | 83% | 1020.1 hPa | 0 mm | - | 766 W/m² | - |
| 1777477543 | 15° C | 82% | 1020.2 hPa | 0 mm | - | 733 W/m² | - |
| 1777477240 | 13.89° C | 85% | 1020.2 hPa | 0 mm | - | 596 W/m² | - |
| 1777476936 | 12.78° C | 89% | 1020.3 hPa | 0 mm | - | 827 W/m² | - |
| 1777476634 | 12.78° C | 89% | 1020.6 hPa | 0 mm | - | 289 W/m² | - |
| 1777476331 | 12.78° C | 88% | 1020.2 hPa | 0 mm | - | 494 W/m² | - |
* Rain latest hour (hover to see other rain measurements)
** Current wind speed in m/s (hover to see current wind gust speed)